Time;durP1;ratioP1;P1;durP2;ratioP2;P2;SDS_P1;SDS_P2;PMS_P1;PMS_P2;Temp;Humidity;BMP_temperature;BMP_pressure;BME280_temperature;BME280_humidity;BME280_pressure;Samples;Min_cycle;Max_cycle;Signal;HPM_P1;HPM_P2
2022/03/11 00:01:17;;;;;;;9.07;3.80;;;;;;;-145.69;53.19;72797.53;5052597;28;20558;-78
2022/03/11 00:03:44;;;;;;;8.87;3.73;;;;;;;-145.69;53.42;72781.59;5053250;28;20207;-77
2022/03/11 00:06:10;;;;;;;10.17;4.07;;;;;;;-145.69;51.73;72749.75;5046555;28;20204;-77
2022/03/11 00:08:36;;;;;;;6.43;3.50;;;;;;;-145.69;52.77;72763.69;5033112;28;20196;-78
2022/03/11 00:11:05;;;;;;;12.30;4.10;;;;;;;-145.69;52.77;72755.72;5037943;28;20245;-78
2022/03/11 00:13:32;;;;;;;9.93;3.60;;;;;;;-145.69;53.13;72767.69;5060134;28;20250;-78
2022/03/11 00:15:59;;;;;;;11.60;4.10;;;;;;;-145.69;53.01;72781.59;5053811;28;20693;-77
2022/03/11 00:18:25;;;;;;;8.57;3.93;;;;;;;-145.69;54.16;72805.50;5052709;28;20208;-77
2022/03/11 00:20:52;;;;;;;13.37;3.97;;;;;;;-145.69;53.83;72797.53;5053036;28;20257;-78
2022/03/11 00:23:18;;;;;;;8.52;4.20;;;;;;;-145.69;54.90;72835.34;5051412;28;20535;-78
2022/03/11 00:25:45;;;;;;;6.97;3.67;;;;;;;-145.69;56.32;72851.28;5052767;28;20227;-78
2022/03/11 00:28:12;;;;;;;10.73;4.00;;;;;;;-145.69;57.53;72871.19;5060361;28;20198;-78
2022/03/11 00:30:41;;;;;;;9.80;3.97;;;;;;;-145.69;57.20;72863.22;5072815;28;20205;-77
2022/03/11 00:33:07;;;;;;;9.00;3.67;;;;;;;-145.69;58.11;72881.13;5072511;28;20203;-77
2022/03/11 00:35:34;;;;;;;9.73;4.00;;;;;;;-145.69;58.38;72887.09;5072462;28;20569;-76
2022/03/11 00:38:00;;;;;;;10.53;4.07;;;;;;;-145.69;57.86;72869.19;5072702;28;20203;-77
2022/03/11 00:40:27;;;;;;;7.33;3.70;;;;;;;-145.69;58.53;72871.19;5072616;28;20630;-77
2022/03/11 00:42:54;;;;;;;9.20;3.60;;;;;;;-145.69;57.97;72855.25;5072190;28;20223;-77
2022/03/11 00:45:22;;;;;;;7.93;3.43;;;;;;;-145.69;58.34;72875.16;5072520;28;20230;-77
2022/03/11 00:47:49;;;;;;;8.80;3.97;;;;;;;-145.69;58.11;72879.16;5072441;28;20203;-76
2022/03/11 00:50:16;;;;;;;7.43;3.57;;;;;;;-145.69;58.73;72881.13;5072715;28;20210;-77
2022/03/11 00:52:42;;;;;;;8.10;3.73;;;;;;;-145.69;58.81;72883.13;5072121;28;20199;-77
2022/03/11 00:55:10;;;;;;;9.87;3.37;;;;;;;-145.69;59.23;72877.16;5072429;28;20653;-76
2022/03/11 00:57:37;;;;;;;10.10;4.10;;;;;;;-145.69;57.86;72857.25;5072253;28;20230;-77
2022/03/11 01:00:04;;;;;;;11.10;4.20;;;;;;;-145.69;58.48;72867.19;5072718;28;20202;-76
2022/03/11 01:02:34;;;;;;;8.57;3.77;;;;;;;-145.69;58.93;72843.31;5072311;28;20203;-77
2022/03/11 01:05:03;;;;;;;8.90;3.90;;;;;;;-145.69;58.71;72855.25;5072456;28;20632;-77
2022/03/11 01:07:30;;;;;;;8.23;3.80;;;;;;;-145.69;59.25;72867.19;5072088;28;20199;-76
2022/03/11 01:09:56;;;;;;;9.53;3.47;;;;;;;-145.69;61.08;72885.13;5072328;28;20202;-77
2022/03/11 01:12:23;;;;;;;8.43;4.10;;;;;;;-145.69;61.04;72883.13;5072353;28;20203;-77
2022/03/11 01:14:49;;;;;;;9.33;3.57;;;;;;;-145.69;62.02;72909.00;5076217;28;20202;-77
2022/03/11 01:17:16;;;;;;;9.23;4.40;;;;;;;-145.69;63.19;72930.91;5075993;28;20191;-77
2022/03/11 01:19:43;;;;;;;10.57;4.30;;;;;;;-145.69;62.54;72914.97;5075524;28;20225;-77
2022/03/11 01:22:11;;;;;;;11.13;4.13;;;;;;;-145.69;62.07;72891.09;5076075;28;20199;-77
2022/03/11 01:24:37;;;;;;;10.13;3.73;;;;;;;-145.69;61.89;72905.03;5075711;28;20222;-77
2022/03/11 01:27:04;;;;;;;9.43;4.10;;;;;;;-145.69;61.92;72899.06;5075840;28;20198;-77
2022/03/11 01:29:31;;;;;;;9.77;4.07;;;;;;;-145.69;62.29;72899.06;5075691;28;20206;-76
2022/03/11 01:31:57;;;;;;;11.27;3.97;;;;;;;-145.69;61.95;72899.06;5075676;28;20202;-76
2022/03/11 01:34:24;;;;;;;10.20;4.20;;;;;;;-145.69;63.21;72907.00;5075919;28;20573;-76
2022/03/11 01:36:50;;;;;;;9.00;4.43;;;;;;;-145.69;62.98;72909.00;5075421;28;20684;-77
2022/03/11 01:39:18;;;;;;;13.53;4.13;;;;;;;-145.69;63.44;72909.00;5075111;28;20203;-77
2022/03/11 01:41:45;;;;;;;9.33;4.53;;;;;;;-145.69;63.96;72924.94;5075835;28;20203;-78
2022/03/11 01:44:12;;;;;;;9.13;4.00;;;;;;;-145.69;64.01;72914.97;5075612;28;20277;-77
2022/03/11 01:46:39;;;;;;;8.90;4.37;;;;;;;-145.69;64.83;72918.97;5075512;28;20202;-77
2022/03/11 01:49:08;;;;;;;10.67;4.30;;;;;;;-145.69;64.90;72913.00;5075188;28;20712;-77
2022/03/11 01:51:38;;;;;;;8.77;4.43;;;;;;;-145.69;65.20;72913.00;5075291;28;20195;-77
2022/03/11 01:54:05;;;;;;;10.67;4.20;;;;;;;-145.69;64.50;72914.97;5075703;28;20518;-77
2022/03/11 01:56:34;;;;;;;10.73;4.83;;;;;;;-145.69;64.88;72905.03;5075539;28;20225;-77
2022/03/11 01:59:00;;;;;;;16.20;4.40;;;;;;;-145.69;65.40;72911.00;5073902;28;20610;-78
2022/03/11 02:01:26;;;;;;;11.43;4.53;;;;;;;-145.69;65.58;72914.97;5075377;28;20199;-79
2022/03/11 02:03:53;;;;;;;9.97;4.23;;;;;;;-145.69;65.53;72922.94;5074679;28;20198;-78
2022/03/11 02:06:21;;;;;;;9.87;4.40;;;;;;;-145.69;65.62;72918.97;5074954;28;20253;-78
2022/03/11 02:08:48;;;;;;;11.03;4.60;;;;;;;-145.69;65.33;72895.06;5075432;28;20202;-78
2022/03/11 02:11:14;;;;;;;10.87;4.47;;;;;;;-145.69;65.74;72899.06;5075287;28;20256;-79
2022/03/11 02:13:46;;;;;;;11.77;4.83;;;;;;;-145.69;66.35;72914.97;5074615;28;20230;-79
2022/03/11 02:16:14;;;;;;;9.60;4.43;;;;;;;-145.69;65.43;72905.03;5074722;28;20269;-79
2022/03/11 02:18:41;;;;;;;10.33;4.80;;;;;;;-145.69;66.92;72916.97;5074867;28;20198;-78
2022/03/11 02:21:09;;;;;;;11.67;4.77;;;;;;;-145.69;66.88;72914.97;5072978;28;20199;-78
2022/03/11 02:23:43;;;;;;;16.77;5.50;;;;;;;-145.69;66.74;72916.97;5055289;28;20199;-78
2022/03/11 02:26:10;;;;;;;12.00;5.17;;;;;;;-145.69;69.33;72948.81;5054909;28;20234;-78
2022/03/11 02:28:36;;;;;;;11.60;5.07;;;;;;;-145.69;69.84;72974.69;5054780;28;20547;-78
2022/03/11 02:31:03;;;;;;;11.43;5.27;;;;;;;-145.69;70.74;72980.66;5054471;28;20206;-77
2022/03/11 02:33:30;;;;;;;11.07;5.17;;;;;;;-145.69;71.54;72984.66;5054126;28;20666;-76
2022/03/11 02:35:57;;;;;;;15.43;5.57;;;;;;;-145.69;72.11;72998.59;5054873;28;20207;-76
2022/03/11 02:38:23;;;;;;;11.83;5.20;;;;;;;-145.69;73.51;73032.44;5054550;28;20615;-77
2022/03/11 02:40:51;;;;;;;12.17;5.47;;;;;;;-145.69;75.48;73044.38;5054429;28;20212;-76
2022/03/11 02:43:18;;;;;;;12.63;5.53;;;;;;;-145.69;75.11;73034.41;5066505;28;20665;-76
2022/03/11 02:45:44;;;;;;;12.33;5.17;;;;;;;-145.69;75.21;73038.41;5074314;28;20265;-76
2022/03/11 02:48:11;;;;;;;11.80;5.37;;;;;;;-145.69;75.75;73022.47;5073921;28;20199;-76
2022/03/11 02:50:38;;;;;;;15.20;5.93;;;;;;;-145.69;75.23;73010.53;5073651;28;20228;-77
2022/03/11 02:53:04;;;;;;;12.60;5.33;;;;;;;-145.69;74.14;72982.66;5074466;28;20203;-76
2022/03/11 02:55:31;;;;;;;13.37;6.00;;;;;;;-145.69;73.99;72986.63;5074182;28;20210;-77
2022/03/11 02:57:59;;;;;;;11.73;5.60;;;;;;;-145.69;74.96;72994.59;5074046;28;20235;-76
2022/03/11 03:00:25;;;;;;;14.83;6.27;;;;;;;-145.69;76.71;73014.50;5074153;28;20194;-79
2022/03/11 03:02:52;;;;;;;11.83;5.87;;;;;;;-145.69;76.81;73034.41;5074505;28;20205;-77
2022/03/11 03:05:18;;;;;;;16.17;6.27;;;;;;;-145.69;77.05;73052.34;5074198;28;20226;-78
2022/03/11 03:07:45;;;;;;;13.33;6.00;;;;;;;-145.69;78.16;73050.34;5074071;28;20198;-77
2022/03/11 03:10:12;;;;;;;16.83;7.30;;;;;;;-145.69;77.52;73022.47;5074118;28;20815;-77
2022/03/11 03:12:38;;;;;;;15.50;7.23;;;;;;;-145.69;77.50;73006.53;5073487;28;20658;-78
2022/03/11 03:15:07;;;;;;;17.23;7.43;;;;;;;-145.69;78.10;73014.50;5073495;28;20209;-77
2022/03/11 03:17:35;;;;;;;17.23;7.17;;;;;;;-145.69;77.82;73000.56;5074010;28;20209;-78
2022/03/11 03:20:01;;;;;;;17.00;6.73;;;;;;;-145.69;77.59;73006.53;5073763;28;20202;-76
2022/03/11 03:22:28;;;;;;;17.57;6.00;;;;;;;-145.69;78.57;73034.41;5073823;28;20205;-77
2022/03/11 03:24:54;;;;;;;16.83;6.63;;;;;;;-145.69;79.69;73070.25;5073619;28;20206;-77
2022/03/11 03:27:21;;;;;;;15.70;7.20;;;;;;;-145.69;81.29;73088.16;5072994;28;20657;-77
2022/03/11 03:29:47;;;;;;;17.30;7.30;;;;;;;-145.69;80.36;73040.38;5073326;28;20206;-77
2022/03/11 03:32:15;;;;;;;18.60;7.57;;;;;;;-145.69;80.88;73056.31;5073761;28;20543;-77
2022/03/11 03:34:41;;;;;;;16.40;7.53;;;;;;;-145.69;81.16;73052.34;5072984;28;20195;-77
2022/03/11 03:37:10;;;;;;;18.63;7.73;;;;;;;-145.69;80.81;73038.41;5073056;28;20203;-77
2022/03/11 03:39:38;;;;;;;19.93;7.90;;;;;;;-145.69;80.74;73054.31;5073774;28;20194;-78
2022/03/11 03:42:05;;;;;;;17.17;7.33;;;;;;;-145.69;81.86;73074.22;5073337;28;20283;-77
2022/03/11 03:44:32;;;;;;;20.80;7.90;;;;;;;-145.69;82.79;73080.19;5073409;28;20245;-77
2022/03/11 03:46:58;;;;;;;19.27;8.20;;;;;;;-145.69;84.95;73112.06;5073452;28;20237;-78
2022/03/11 03:49:28;;;;;;;19.00;8.10;;;;;;;-145.69;85.91;73141.91;5073676;28;20198;-77
2022/03/11 03:51:55;;;;;;;16.53;8.27;;;;;;;-145.69;85.85;73177.75;5073229;28;20203;-77
2022/03/11 03:54:21;;;;;;;17.40;7.83;;;;;;;-145.69;88.44;73191.69;5073430;28;20250;-77
2022/03/11 03:56:48;;;;;;;19.70;8.13;;;;;;;-145.69;88.86;73171.78;5073290;28;20210;-76
2022/03/11 03:59:15;;;;;;;21.87;8.63;;;;;;;-145.69;88.36;73157.84;5073490;28;20206;-77
2022/03/11 04:01:43;;;;;;;20.13;7.93;;;;;;;-145.69;88.17;73133.94;5073286;28;20277;-77
2022/03/11 04:04:11;;;;;;;19.37;8.23;;;;;;;-145.69;86.86;73112.06;5073174;28;20234;-77
2022/03/11 04:06:41;;;;;;;17.73;7.70;;;;;;;-145.69;86.64;73112.06;5073350;28;20233;-78
2022/03/11 04:09:08;;;;;;;22.03;8.03;;;;;;;-145.69;85.58;73094.13;5073236;28;20290;-77
2022/03/11 04:11:35;;;;;;;23.13;9.27;;;;;;;-145.69;86.48;73100.09;5073111;28;20205;-77
2022/03/11 04:14:02;;;;;;;22.67;8.37;;;;;;;-145.69;85.78;73126.00;5073041;28;20237;-78
2022/03/11 04:16:29;;;;;;;20.70;8.20;;;;;;;-145.69;86.68;73110.06;5072823;28;20665;-77
2022/03/11 04:18:55;;;;;;;21.30;8.73;;;;;;;-145.69;87.31;73137.94;5072740;28;20286;-77
2022/03/11 04:21:22;;;;;;;22.70;8.10;;;;;;;-145.69;88.49;73149.88;5073060;28;20203;-77
2022/03/11 04:23:50;;;;;;;18.13;8.07;;;;;;;-145.69;88.74;73131.97;5071052;28;20212;-77
2022/03/11 04:26:18;;;;;;;26.70;8.97;;;;;;;-145.69;87.83;73133.94;5053429;28;20277;-77
2022/03/11 04:28:44;;;;;;;23.27;9.30;;;;;;;-145.69;87.73;73127.97;5053257;28;20208;-77
2022/03/11 04:31:12;;;;;;;23.87;9.37;;;;;;;-145.69;88.66;73127.97;5052931;28;20200;-77
2022/03/11 04:33:41;;;;;;;21.03;8.80;;;;;;;-145.69;88.02;73120.00;5053205;28;20203;-77
2022/03/11 04:36:08;;;;;;;20.73;8.87;;;;;;;-145.69;88.03;73114.03;5070958;28;20199;-77
2022/03/11 04:38:35;;;;;;;23.33;8.70;;;;;;;-145.69;88.75;73133.94;5072742;28;20203;-76
2022/03/11 04:41:03;;;;;;;24.13;10.03;;;;;;;-145.69;89.23;73143.91;5072762;28;20210;-76
2022/03/11 04:43:29;;;;;;;27.40;9.37;;;;;;;-145.69;89.81;73135.94;5072493;28;20207;-77
2022/03/11 04:45:55;;;;;;;23.03;9.90;;;;;;;-145.69;90.18;73122.00;5072535;28;20227;-77
2022/03/11 04:48:22;;;;;;;20.00;8.83;;;;;;;-145.69;88.80;73112.06;5076178;28;20199;-77
2022/03/11 04:50:48;;;;;;;21.60;9.50;;;;;;;-145.69;89.02;73149.88;5076661;28;20340;-77
2022/03/11 04:53:15;;;;;;;24.83;10.00;;;;;;;-145.69;89.96;73169.78;5076362;28;20206;-77
2022/03/11 04:55:41;;;;;;;24.17;9.63;;;;;;;-145.69;92.51;73185.72;5076574;28;20202;-77
2022/03/11 04:58:09;;;;;;;30.57;10.47;;;;;;;-145.69;93.11;73177.75;5076414;28;20203;-76
2022/03/11 05:00:36;;;;;;;28.50;9.80;;;;;;;-145.69;92.07;73169.78;5076651;28;20202;-77
2022/03/11 05:03:02;;;;;;;25.87;10.90;;;;;;;-145.69;91.82;73151.88;5076595;28;20233;-75
2022/03/11 05:05:29;;;;;;;27.03;10.50;;;;;;;-145.69;91.59;73173.75;5075617;28;20206;-76
2022/03/11 05:07:55;;;;;;;35.53;11.97;;;;;;;-145.69;92.49;73177.75;5076531;28;20203;-76
2022/03/11 05:10:22;;;;;;;24.00;10.10;;;;;;;-145.69;92.78;73177.75;5076326;28;20298;-76
2022/03/11 05:12:48;;;;;;;21.80;10.23;;;;;;;-145.69;92.69;73165.81;5075827;28;20237;-76
2022/03/11 05:15:16;;;;;;;24.60;10.70;;;;;;;-145.69;92.29;73157.84;5075789;28;20207;-75
2022/03/11 05:17:42;;;;;;;23.70;10.43;;;;;;;-145.69;92.63;73153.84;5076024;28;20260;-76
2022/03/11 05:20:10;;;;;;;24.23;10.67;;;;;;;-145.69;91.90;73169.78;5075951;28;20642;-76
2022/03/11 05:22:36;;;;;;;27.73;11.43;;;;;;;-145.69;93.22;73177.75;5075658;28;20206;-76
2022/03/11 05:25:03;;;;;;;27.30;11.30;;;;;;;-145.69;93.00;73185.72;5076089;28;20210;-76
2022/03/11 05:27:30;;;;;;;36.15;14.52;;;;;;;-145.69;94.45;73187.69;5075123;28;20488;-75
2022/03/11 05:29:56;;;;;;;28.63;11.93;;;;;;;-145.69;93.74;73179.75;5076008;28;20612;-75
2022/03/11 05:32:24;;;;;;;23.80;10.97;;;;;;;-145.69;94.40;73199.66;5075520;28;20207;-76
2022/03/11 05:34:51;;;;;;;30.87;11.97;;;;;;;-145.69;94.23;73201.63;5075426;28;20203;-76
2022/03/11 05:37:17;;;;;;;28.43;12.37;;;;;;;-145.69;95.14;73203.63;5075658;28;20199;-76
2022/03/11 05:39:43;;;;;;;25.40;11.87;;;;;;;-145.69;94.23;73205.63;5075614;28;20199;-75
2022/03/11 05:42:10;;;;;;;33.60;12.43;;;;;;;-145.69;93.82;73177.75;5075472;28;20199;-76
2022/03/11 05:44:37;;;;;;;30.70;12.43;;;;;;;-145.69;93.90;73179.75;5075635;28;20230;-76
2022/03/11 05:47:04;;;;;;;30.20;12.80;;;;;;;-145.69;93.84;73177.75;5075488;28;20233;-76
2022/03/11 05:49:32;;;;;;;33.23;13.40;;;;;;;-145.69;94.17;73185.72;5075291;28;20198;-76
2022/03/11 05:51:58;;;;;;;31.17;12.63;;;;;;;-145.69;94.67;73201.63;5075666;28;20198;-75
2022/03/11 05:54:24;;;;;;;31.33;12.20;;;;;;;-145.69;95.05;73205.63;5075314;28;20267;-75
2022/03/11 05:56:54;;;;;;;26.50;12.00;;;;;;;-145.69;95.78;73209.59;5075590;28;20198;-75
2022/03/11 05:59:21;;;;;;;29.93;12.37;;;;;;;-145.69;96.63;73219.56;5074197;28;20202;-75
2022/03/11 06:01:47;;;;;;;29.97;12.10;;;;;;;-145.69;95.87;73209.59;5075227;28;20198;-76
2022/03/11 06:04:14;;;;;;;33.10;13.00;;;;;;;-145.69;96.84;73217.56;5075037;28;20649;-76
2022/03/11 06:06:42;;;;;;;33.13;13.53;;;;;;;-145.69;97.18;73203.63;5074804;28;20237;-75
2022/03/11 06:09:11;;;;;;;34.17;13.37;;;;;;;-145.69;95.40;73179.75;5074900;28;20199;-75
2022/03/11 06:11:37;;;;;;;31.40;12.73;;;;;;;-145.69;95.56;73189.69;5075009;28;20298;-76
2022/03/11 06:14:04;;;;;;;28.83;12.80;;;;;;;-145.69;94.99;73205.63;5074978;28;20226;-75
2022/03/11 06:16:31;;;;;;;34.17;13.70;;;;;;;-145.69;96.10;73205.63;5074672;28;20558;-76
2022/03/11 06:18:57;;;;;;;31.40;13.20;;;;;;;-145.69;95.85;73199.66;5075302;28;20597;-76
2022/03/11 06:21:24;;;;;;;41.30;13.50;;;;;;;-145.69;94.90;73179.75;5075265;28;20206;-77
2022/03/11 06:23:53;;;;;;;33.70;14.27;;;;;;;-145.69;94.30;73159.84;5075149;28;20198;-76
2022/03/11 06:26:19;;;;;;;32.23;13.40;;;;;;;-145.69;93.24;73155.84;5075203;28;20697;-76
2022/03/11 06:28:46;;;;;;;33.73;13.90;;;;;;;-145.69;92.40;73153.84;5075094;28;20206;-76
2022/03/11 06:31:12;;;;;;;34.60;14.07;;;;;;;-145.69;92.09;73153.84;5074596;28;20225;-76
2022/03/11 06:33:39;;;;;;;34.80;13.50;;;;;;;-145.69;92.17;73155.84;5072327;28;20195;-76
2022/03/11 06:36:06;;;;;;;34.17;14.57;;;;;;;-145.69;92.32;73145.91;5074858;28;20670;-75
2022/03/11 06:38:32;;;;;;;40.00;14.00;;;;;;;-145.69;92.44;73143.91;5074623;28;20225;-75
2022/03/11 06:41:00;;;;;;;31.63;13.80;;;;;;;-145.69;91.87;73137.94;5074705;28;20221;-75
2022/03/11 06:43:27;;;;;;;30.77;13.43;;;;;;;-145.69;92.43;73135.94;5074221;28;20543;-76
2022/03/11 06:45:54;;;;;;;36.40;14.10;;;;;;;-145.69;93.46;73137.94;5074399;28;20730;-75
2022/03/11 06:48:21;;;;;;;29.53;13.80;;;;;;;-145.69;91.32;73118.03;5074452;28;20683;-76
2022/03/11 06:50:48;;;;;;;34.90;13.67;;;;;;;-145.69;90.04;73098.13;5074731;28;20203;-76
2022/03/11 06:53:14;;;;;;;35.13;14.70;;;;;;;-145.69;90.94;73092.16;5074329;28;20199;-76
2022/03/11 06:55:41;;;;;;;33.37;14.23;;;;;;;-145.69;90.36;73094.13;5074545;28;20573;-75
2022/03/11 06:58:09;;;;;;;34.33;14.27;;;;;;;-145.69;90.96;73084.19;5074358;28;20394;-76
2022/03/11 07:00:35;;;;;;;36.77;13.90;;;;;;;-145.69;91.66;73086.19;5074299;28;20210;-76
2022/03/11 07:03:02;;;;;;;35.33;14.30;;;;;;;-145.69;91.32;73082.19;5074493;28;20206;-76
2022/03/11 07:05:29;;;;;;;47.33;14.43;;;;;;;-145.69;91.71;73074.22;5074075;28;20282;-76
2022/03/11 07:07:55;;;;;;;39.83;13.33;;;;;;;-145.69;90.08;73062.28;5074357;28;20242;-76
2022/03/11 07:10:22;;;;;;;32.83;14.43;;;;;;;-145.69;88.65;73042.38;5073652;28;20206;-75
2022/03/11 07:12:49;;;;;;;34.08;15.57;;;;;;;-145.69;88.32;73028.44;5073288;28;20442;-76
2022/03/11 07:15:17;;;;;;;34.23;13.83;;;;;;;-145.69;87.52;73006.53;5074207;28;20226;-76
2022/03/11 07:17:45;;;;;;;37.93;15.17;;;;;;;-145.69;86.43;72996.59;5074110;28;20264;-76
2022/03/11 07:20:11;;;;;;;39.97;13.97;;;;;;;-145.69;86.38;72990.63;5074035;28;20233;-77
2022/03/11 07:22:39;;;;;;;36.23;16.30;;;;;;;-145.69;87.02;72980.66;5073493;28;20440;-76
2022/03/11 07:25:06;;;;;;;34.13;14.37;;;;;;;-145.69;86.53;72984.66;5073899;28;20206;-75
2022/03/11 07:27:33;;;;;;;32.30;14.60;;;;;;;-145.69;86.66;72970.72;5073919;28;20230;-76
2022/03/11 07:29:59;;;;;;;30.00;13.60;;;;;;;-145.69;85.83;72958.78;5074036;28;20280;-76
2022/03/11 07:32:27;;;;;;;36.70;14.80;;;;;;;-145.69;86.35;72948.81;5073794;28;20199;-76
2022/03/11 07:34:54;;;;;;;31.80;13.37;;;;;;;-145.69;84.52;72928.91;5073459;28;20199;-76
2022/03/11 07:37:21;;;;;;;39.60;13.80;;;;;;;-145.69;83.82;72913.00;5073701;28;20398;-76
2022/03/11 07:39:47;;;;;;;33.10;13.07;;;;;;;-145.69;83.71;72899.06;5073689;28;20203;-76
2022/03/11 07:42:14;;;;;;;32.40;13.27;;;;;;;-145.69;83.78;72889.09;5073741;28;20205;-76
2022/03/11 07:44:41;;;;;;;30.30;12.50;;;;;;;-145.69;82.65;72877.16;5073746;28;20256;-77
2022/03/11 07:47:07;;;;;;;32.00;13.17;;;;;;;-145.69;82.75;72863.22;5073719;28;20313;-77
2022/03/11 07:49:35;;;;;;;31.40;13.37;;;;;;;-145.69;82.05;72843.31;5073297;28;20252;-77
2022/03/11 07:52:02;;;;;;;32.90;13.73;;;;;;;-145.69;80.32;72823.41;5073511;28;20199;-77
2022/03/11 07:54:29;;;;;;;28.03;12.37;;;;;;;-145.69;79.26;72795.53;5073362;28;20203;-77
2022/03/11 07:56:55;;;;;;;33.37;13.50;;;;;;;-145.69;79.14;72775.63;5073423;28;20673;-77
2022/03/11 07:59:22;;;;;;;31.37;13.50;;;;;;;-145.69;77.26;72747.78;5073390;28;20692;-77
2022/03/11 08:01:49;;;;;;;35.97;12.83;;;;;;;-145.69;77.36;72729.84;5073546;28;20206;-77
2022/03/11 08:04:16;;;;;;;29.03;11.80;;;;;;;-145.69;75.94;72707.97;5073154;28;20195;-77
2022/03/11 08:06:47;;;;;;;31.67;12.60;;;;;;;-145.69;75.44;72692.03;5072970;28;20229;-77
2022/03/11 08:09:13;;;;;;;27.57;12.40;;;;;;;-145.69;74.05;72660.19;5073488;28;20194;-77
2022/03/11 08:11:40;;;;;;;29.50;12.33;;;;;;;-145.69;73.28;72642.28;5073510;28;20194;-77
2022/03/11 08:14:07;;;;;;;28.50;12.77;;;;;;;-145.69;72.60;72620.38;5072866;28;20231;-78
2022/03/11 08:16:33;;;;;;;28.60;12.50;;;;;;;-145.69;71.74;72600.47;5073472;28;20210;-78
2022/03/11 08:19:01;;;;;;;25.73;11.97;;;;;;;-145.69;70.80;72576.59;5073263;28;20657;-79
2022/03/11 08:21:28;;;;;;;31.33;12.63;;;;;;;-145.69;71.17;72560.66;5072577;28;20203;-77
2022/03/11 08:23:55;;;;;;;26.50;12.33;;;;;;;-145.69;70.73;72532.78;5073286;28;20260;-78
2022/03/11 08:26:23;;;;;;;28.60;11.73;;;;;;;-145.69;69.25;72512.91;5073230;28;20199;-79
2022/03/11 08:28:49;;;;;;;34.90;11.67;;;;;;;-145.69;67.98;72489.00;5073105;28;20202;-78
2022/03/11 08:31:15;;;;;;;34.57;13.60;;;;;;;-145.69;67.75;72465.13;5073152;28;20213;-79
2022/03/11 08:33:42;;;;;;;27.50;11.93;;;;;;;-145.69;66.45;72437.25;5072174;28;20198;-78
2022/03/11 08:36:08;;;;;;;29.70;12.03;;;;;;;-145.69;65.10;72385.50;5073022;28;20199;-79
2022/03/11 08:38:35;;;;;;;24.63;11.93;;;;;;;-145.69;63.06;72355.66;5072786;28;20214;-79
2022/03/11 08:41:06;;;;;;;28.43;12.30;;;;;;;-145.69;63.77;72335.75;5058486;28;20207;-78
2022/03/11 08:43:33;;;;;;;29.13;13.40;;;;;;;-145.69;62.81;72317.84;5051720;28;20923;-79
2022/03/11 08:46:01;;;;;;;25.77;11.87;;;;;;;-145.69;62.41;72295.94;5052572;28;20252;-79
2022/03/11 08:48:28;;;;;;;25.80;12.07;;;;;;;-145.69;59.77;72278.03;5052414;28;20759;-79
2022/03/11 08:50:54;;;;;;;22.70;10.87;;;;;;;-145.69;59.06;72254.16;5053009;28;20206;-79
2022/03/11 08:53:21;;;;;;;23.00;10.83;;;;;;;-145.69;57.91;72242.22;5052684;28;20569;-79
2022/03/11 08:55:47;;;;;;;24.67;11.23;;;;;;;-145.69;57.75;72222.31;5052749;28;20195;-80
2022/03/11 08:58:15;;;;;;;22.93;10.50;;;;;;;-145.69;57.01;72214.34;5052649;28;20210;-78
2022/03/11 09:00:42;;;;;;;24.63;11.17;;;;;;;-145.69;56.68;72208.38;5052547;28;20203;-78
2022/03/11 09:03:08;;;;;;;25.93;10.20;;;;;;;-145.69;54.31;72192.44;5053859;28;20595;-77
2022/03/11 09:05:35;;;;;;;23.83;10.50;;;;;;;-145.69;53.55;72172.53;5072413;28;20588;-77
2022/03/11 09:08:01;;;;;;;20.40;10.07;;;;;;;-145.69;54.85;72166.56;5072362;28;20230;-76
2022/03/11 09:10:28;;;;;;;22.93;10.40;;;;;;;-145.69;56.75;72158.63;5072502;28;20222;-78
2022/03/11 09:12:54;;;;;;;28.03;13.33;;;;;;;-145.69;54.94;72150.66;5071342;28;20496;-77
2022/03/11 09:15:22;;;;;;;26.00;11.23;;;;;;;-145.69;55.36;72134.72;5067142;28;20203;-78
2022/03/11 09:17:49;;;;;;;20.63;9.83;;;;;;;-145.69;54.00;72134.72;5071518;28;20199;-77
2022/03/11 09:20:15;;;;;;;24.27;10.17;;;;;;;-145.69;52.99;72128.75;5072356;28;20225;-78
2022/03/11 09:22:42;;;;;;;22.30;9.87;;;;;;;-145.69;52.04;72102.88;5072350;28;20211;-78
2022/03/11 09:25:10;;;;;;;24.43;10.50;;;;;;;-145.69;52.04;72075.03;5072050;28;20626;-77
2022/03/11 09:27:36;;;;;;;19.90;8.77;;;;;;;-145.69;52.20;72067.06;5072069;28;20230;-77
2022/03/11 09:30:04;;;;;;;21.97;10.90;;;;;;;-145.69;50.76;72033.22;5072126;28;20203;-77
2022/03/11 09:32:32;;;;;;;27.17;10.43;;;;;;;-145.69;49.33;71995.41;5072567;28;20207;-80
2022/03/11 09:34:59;;;;;;;23.17;10.37;;;;;;;-145.69;47.79;71985.47;5074713;28;20206;-78
2022/03/11 09:37:26;;;;;;;23.43;10.67;;;;;;;-145.69;49.09;71977.50;5075913;28;20199;-76
2022/03/11 09:39:53;;;;;;;23.50;10.23;;;;;;;-145.69;48.04;71963.56;5075908;28;20203;-78
2022/03/11 09:42:19;;;;;;;25.03;9.70;;;;;;;-145.69;48.93;71967.56;5075140;28;20206;-77
2022/03/11 09:44:50;;;;;;;27.60;10.60;;;;;;;-145.69;48.59;71951.63;5075388;28;20206;-77
2022/03/11 09:47:17;;;;;;;25.13;10.27;;;;;;;-145.69;49.38;71935.72;5075744;28;20222;-77
2022/03/11 09:49:45;;;;;;;21.37;10.30;;;;;;;-145.69;48.00;71915.81;5075009;28;20202;-77
2022/03/11 09:52:13;;;;;;;23.57;10.03;;;;;;;-145.69;46.68;71903.88;5075580;28;20205;-77
2022/03/11 09:54:40;;;;;;;20.23;9.30;;;;;;;-145.69;45.38;71881.97;5075508;28;20195;-77
2022/03/11 09:57:06;;;;;;;21.53;9.93;;;;;;;-145.69;45.11;71876.00;5075385;28;20201;-77
2022/03/11 09:59:33;;;;;;;21.30;9.33;;;;;;;-145.69;45.24;71844.16;5075557;28;20570;-77
2022/03/11 10:01:59;;;;;;;19.03;9.23;;;;;;;-145.69;43.34;71832.22;5075256;28;20242;-77
2022/03/11 10:04:26;;;;;;;21.70;9.83;;;;;;;-145.69;42.37;71820.28;5075329;28;20226;-77
2022/03/11 10:06:54;;;;;;;20.67;9.40;;;;;;;-145.69;43.99;71780.50;5074909;28;20253;-78
2022/03/11 10:09:32;;;;;;;21.80;9.63;;;;;;;-145.69;42.50;71760.59;5075258;28;20572;-77
2022/03/11 10:12:00;;;;;;;19.57;8.40;;;;;;;-145.69;40.54;71732.72;5074997;28;20205;-78
2022/03/11 10:14:31;;;;;;;19.73;9.07;;;;;;;-145.69;41.09;71724.75;5074642;28;20230;-78
2022/03/11 10:16:58;;;;;;;20.07;9.03;;;;;;;-145.69;39.66;71730.72;5074928;28;20199;-78
2022/03/11 10:19:25;;;;;;;21.93;9.57;;;;;;;-145.69;40.76;71716.81;5074925;28;20202;-78
2022/03/11 10:21:56;;;;;;;20.93;9.43;;;;;;;-145.69;42.08;71708.84;5074980;28;20214;-78
2022/03/11 10:24:23;;;;;;;20.17;9.53;;;;;;;-145.69;44.69;71688.94;5074494;28;20264;-80
2022/03/11 10:26:51;;;;;;;20.70;9.13;;;;;;;-145.69;39.73;71682.97;5075022;28;20206;-80
2022/03/11 10:29:20;;;;;;;24.10;10.50;;;;;;;-145.69;40.15;71680.97;5073942;28;20246;-77
2022/03/11 10:31:50;;;;;;;22.50;9.33;;;;;;;-145.69;40.62;71673.03;5074810;28;20214;-78
2022/03/11 10:34:19;;;;;;;26.20;10.57;;;;;;;-145.69;40.44;71639.19;5074765;28;20226;-77
2022/03/11 10:36:51;;;;;;;22.63;9.27;;;;;;;-145.69;40.42;71629.25;5074711;28;20206;-78
2022/03/11 10:39:20;;;;;;;22.77;9.93;;;;;;;-145.69;39.30;71639.19;5074754;28;20233;-79
2022/03/11 10:41:49;;;;;;;23.33;10.47;;;;;;;-145.69;39.82;71625.25;5074570;28;20202;-78
2022/03/11 10:44:18;;;;;;;24.43;10.00;;;;;;;-145.69;39.04;71613.31;5073231;28;20195;-77
2022/03/11 10:46:45;;;;;;;23.93;11.33;;;;;;;-145.69;37.58;71625.25;5074248;28;20213;-79
2022/03/11 10:49:11;;;;;;;20.73;9.77;;;;;;;-145.69;38.57;71621.28;5071837;28;20287;-77
2022/03/11 10:51:39;;;;;;;26.37;10.53;;;;;;;-145.69;39.06;71585.47;5074350;28;20195;-77
2022/03/11 10:54:07;;;;;;;26.43;10.60;;;;;;;-145.69;37.45;71581.50;5074020;28;20256;-77
2022/03/11 10:56:39;;;;;;;22.47;10.33;;;;;;;-145.69;37.46;71605.38;5074359;28;20194;-77
2022/03/11 10:59:06;;;;;;;25.17;10.77;;;;;;;-145.69;40.19;71573.53;5074158;28;20669;-77
2022/03/11 11:01:37;;;;;;;27.00;10.93;;;;;;;-145.69;42.37;71595.41;5074089;28;20234;-77
2022/03/11 11:04:07;;;;;;;29.60;11.37;;;;;;;-145.69;45.17;71605.38;5073774;28;20199;-77
2022/03/11 11:06:33;;;;;;;25.47;11.33;;;;;;;-145.69;44.59;71629.25;5074226;28;20203;-77